Time;durP1;ratioP1;P1;durP2;ratioP2;P2;SDS_P1;SDS_P2;PMS_P1;PMS_P2;Temp;Humidity;BMP_temperature;BMP_pressure;BME280_temperature;BME280_humidity;BME280_pressure;Samples;Min_cycle;Max_cycle;Signal;HPM_P1;HPM_P2
2023/12/25 00:01:21;;;;;;;3.17;2.87;;;;;;;;;;5072065;28;20520;-68
2023/12/25 00:03:47;;;;;;;3.13;2.83;;;;;;;;;;5075665;28;20456;-68
2023/12/25 00:06:14;;;;;;;3.40;2.77;;;;;;;;;;5069413;28;20499;-68
2023/12/25 00:08:40;;;;;;;4.43;3.00;;;;;;;;;;5070337;28;20531;-69
2023/12/25 00:11:07;;;;;;;5.50;3.10;;;;;;;;;;5071979;28;20566;-67
2023/12/25 00:13:33;;;;;;;5.60;2.90;;;;;;;;;;5070275;28;20607;-67
2023/12/25 00:15:59;;;;;;;4.90;2.93;;;;;;;;;;5075069;28;20531;-72
2023/12/25 00:18:27;;;;;;;3.73;2.83;;;;;;;;;;5071631;28;21154;-70
2023/12/25 00:20:53;;;;;;;7.23;3.87;;;;;;;;;;5076536;28;20712;-68
2023/12/25 00:23:20;;;;;;;5.10;2.80;;;;;;;;;;5069471;28;20551;-68
2023/12/25 00:25:46;;;;;;;3.50;3.20;;;;;;;;;;5067599;28;20452;-70
2023/12/25 00:28:13;;;;;;;4.60;2.97;;;;;;;;;;5070935;28;20903;-71
2023/12/25 00:30:39;;;;;;;3.07;2.77;;;;;;;;;;5066042;28;20772;-70
2023/12/25 00:33:05;;;;;;;5.50;2.93;;;;;;;;;;5067080;28;20567;-71
2023/12/25 00:35:33;;;;;;;4.70;3.10;;;;;;;;;;5068223;28;21223;-70
2023/12/25 00:37:59;;;;;;;3.00;2.70;;;;;;;;;;5065331;28;20542;-70
2023/12/25 00:40:26;;;;;;;2.83;2.53;;;;;;;;;;5067936;28;20910;-70
2023/12/25 00:42:52;;;;;;;3.83;2.67;;;;;;;;;;5073065;28;20458;-70
2023/12/25 00:45:19;;;;;;;3.97;2.23;;;;;;;;;;5073195;28;20971;-71
2023/12/25 00:47:45;;;;;;;2.97;2.50;;;;;;;;;;5069389;28;20484;-70
2023/12/25 00:50:11;;;;;;;3.10;2.20;;;;;;;;;;5073195;28;20551;-70
2023/12/25 00:52:39;;;;;;;3.30;2.33;;;;;;;;;;5066822;28;20524;-71
2023/12/25 00:55:06;;;;;;;1.97;1.87;;;;;;;;;;5075979;28;20486;-72
2023/12/25 00:57:32;;;;;;;3.37;2.70;;;;;;;;;;5069061;28;20475;-72
2023/12/25 00:59:59;;;;;;;4.03;3.30;;;;;;;;;;5072010;28;20523;-71
2023/12/25 01:02:26;;;;;;;5.30;2.90;;;;;;;;;;5072425;28;20494;-71
2023/12/25 01:04:52;;;;;;;3.37;2.90;;;;;;;;;;5067545;28;20550;-71
2023/12/25 01:07:18;;;;;;;3.03;2.83;;;;;;;;;;5049793;28;20543;-71
2023/12/25 01:09:46;;;;;;;5.27;3.00;;;;;;;;;;5042164;28;20500;-71
2023/12/25 01:12:12;;;;;;;3.03;2.80;;;;;;;;;;5051560;28;20595;-71
2023/12/25 01:14:42;;;;;;;4.40;3.20;;;;;;;;;;5048708;28;20459;-71
2023/12/25 01:17:08;;;;;;;3.37;3.03;;;;;;;;;;5049979;28;20450;-70
2023/12/25 01:19:35;;;;;;;3.30;3.00;;;;;;;;;;5049297;28;20823;-71
2023/12/25 01:22:01;;;;;;;2.67;2.47;;;;;;;;;;5048499;28;20513;-71
2023/12/25 01:24:28;;;;;;;3.40;3.10;;;;;;;;;;5055474;28;20506;-71
2023/12/25 01:26:55;;;;;;;4.50;3.90;;;;;;;;;;5051627;28;20539;-73
2023/12/25 01:29:22;;;;;;;5.50;4.20;;;;;;;;;;5049344;28;20516;-71
2023/12/25 01:31:48;;;;;;;4.77;4.20;;;;;;;;;;5051237;28;20469;-70
2023/12/25 01:34:14;;;;;;;3.80;3.50;;;;;;;;;;5053287;28;21045;-72
2023/12/25 01:36:41;;;;;;;4.50;4.10;;;;;;;;;;5054361;28;20463;-71
2023/12/25 01:39:07;;;;;;;4.30;3.90;;;;;;;;;;5050643;28;20457;-72
2023/12/25 01:41:34;;;;;;;6.03;3.80;;;;;;;;;;5041329;28;20702;-70
2023/12/25 01:44:01;;;;;;;4.60;3.30;;;;;;;;;;5048930;28;20525;-71
2023/12/25 01:46:28;;;;;;;3.90;3.33;;;;;;;;;;5054000;28;20491;-70
2023/12/25 01:48:54;;;;;;;3.70;3.20;;;;;;;;;;5051106;28;20985;-70
2023/12/25 01:51:22;;;;;;;2.97;2.73;;;;;;;;;;5054614;28;20575;-70
2023/12/25 01:53:49;;;;;;;4.23;3.40;;;;;;;;;;5052774;28;20484;-69
2023/12/25 01:56:15;;;;;;;2.57;2.37;;;;;;;;;;5049877;28;20536;-69
2023/12/25 01:58:41;;;;;;;4.80;2.23;;;;;;;;;;5047237;28;20450;-70
2023/12/25 02:01:09;;;;;;;2.07;1.90;;;;;;;;;;5051935;28;20480;-70
2023/12/25 02:03:36;;;;;;;1.60;1.50;;;;;;;;;;5049770;28;20539;-70
2023/12/25 02:06:02;;;;;;;1.47;1.37;;;;;;;;;;5051252;28;20914;-70
2023/12/25 02:08:29;;;;;;;1.97;1.50;;;;;;;;;;5050806;28;20544;-70
2023/12/25 02:10:55;;;;;;;1.10;1.00;;;;;;;;;;5048841;28;20490;-70
2023/12/25 02:13:22;;;;;;;2.37;1.27;;;;;;;;;;5052348;28;20572;-70
2023/12/25 02:15:49;;;;;;;0.90;0.80;;;;;;;;;;5051019;28;20461;-70
2023/12/25 02:18:17;;;;;;;0.93;0.83;;;;;;;;;;5052325;28;20533;-70
2023/12/25 02:20:44;;;;;;;3.00;0.77;;;;;;;;;;5046390;28;20529;-70
2023/12/25 02:23:12;;;;;;;1.20;1.10;;;;;;;;;;5055371;28;20452;-71
2023/12/25 02:25:47;;;;;;;2.00;1.33;;;;;;;;;;5044520;28;20513;-70
2023/12/25 02:28:13;;;;;;;2.73;1.40;;;;;;;;;;5048590;28;20520;-70
2023/12/25 02:30:39;;;;;;;1.70;1.57;;;;;;;;;;5053213;28;20516;-70
2023/12/25 02:33:06;;;;;;;1.60;1.50;;;;;;;;;;5050307;28;20457;-70
2023/12/25 02:35:32;;;;;;;4.30;1.60;;;;;;;;;;5053110;28;20480;-69
2023/12/25 02:37:58;;;;;;;2.73;1.60;;;;;;;;;;5056549;28;20452;-69
2023/12/25 02:40:25;;;;;;;3.50;1.70;;;;;;;;;;5050513;28;20544;-70
2023/12/25 02:42:53;;;;;;;2.03;1.70;;;;;;;;;;5052364;28;20485;-70
2023/12/25 02:45:19;;;;;;;1.60;1.40;;;;;;;;;;5055200;28;20486;-70
2023/12/25 02:47:45;;;;;;;2.80;1.30;;;;;;;;;;5055857;28;20448;-70
2023/12/25 02:50:12;;;;;;;1.87;1.20;;;;;;;;;;5051937;28;20544;-70
2023/12/25 02:52:38;;;;;;;1.50;1.10;;;;;;;;;;5054051;28;21103;-70
2023/12/25 02:55:05;;;;;;;1.37;1.20;;;;;;;;;;5055908;28;20543;-70
2023/12/25 02:57:31;;;;;;;2.50;1.40;;;;;;;;;;5049949;28;20454;-71
2023/12/25 02:59:59;;;;;;;2.10;1.30;;;;;;;;;;5046490;28;20452;-69
2023/12/25 03:02:27;;;;;;;2.03;1.10;;;;;;;;;;5056009;28;20728;-71
2023/12/25 03:04:54;;;;;;;2.00;1.23;;;;;;;;;;5058704;28;20525;-70
2023/12/25 03:07:20;;;;;;;1.97;1.00;;;;;;;;;;5075689;28;20495;-70
2023/12/25 03:09:47;;;;;;;1.17;1.07;;;;;;;;;;5069589;28;20603;-70
2023/12/25 03:12:13;;;;;;;1.40;1.30;;;;;;;;;;5070986;28;20487;-70
2023/12/25 03:14:40;;;;;;;2.57;1.17;;;;;;;;;;5067221;28;20458;-70
2023/12/25 03:17:08;;;;;;;1.83;1.10;;;;;;;;;;5070822;28;20984;-70
2023/12/25 03:19:35;;;;;;;4.60;1.30;;;;;;;;;;5069668;28;20542;-70
2023/12/25 03:22:01;;;;;;;0.83;0.83;;;;;;;;;;5077314;28;20507;-70
2023/12/25 03:24:28;;;;;;;1.80;1.20;;;;;;;;;;5071545;28;20452;-70
2023/12/25 03:26:54;;;;;;;2.33;1.37;;;;;;;;;;5073940;28;20475;-70
2023/12/25 03:29:20;;;;;;;3.23;2.03;;;;;;;;;;5068676;28;20969;-70
2023/12/25 03:31:47;;;;;;;2.10;1.20;;;;;;;;;;5074601;28;20475;-70
2023/12/25 03:34:18;;;;;;;5.60;1.47;;;;;;;;;;5066969;28;20493;-70
2023/12/25 03:36:44;;;;;;;3.93;1.70;;;;;;;;;;5073502;28;20505;-70
2023/12/25 03:39:11;;;;;;;3.70;1.30;;;;;;;;;;5069322;28;20492;-70
2023/12/25 03:41:37;;;;;;;4.07;1.50;;;;;;;;;;5075925;28;20595;-69
2023/12/25 03:44:04;;;;;;;1.97;1.30;;;;;;;;;;5072932;28;20511;-70
2023/12/25 03:46:30;;;;;;;3.67;1.33;;;;;;;;;;5073282;28;20476;-71
2023/12/25 03:48:56;;;;;;;2.13;1.10;;;;;;;;;;5066650;28;20525;-70
2023/12/25 03:51:24;;;;;;;1.30;1.00;;;;;;;;;;5068590;28;20842;-70
2023/12/25 03:53:51;;;;;;;2.00;1.20;;;;;;;;;;5071222;28;20615;-70
2023/12/25 03:56:17;;;;;;;3.47;1.37;;;;;;;;;;5072971;28;20471;-69
2023/12/25 03:58:44;;;;;;;3.60;1.60;;;;;;;;;;5068257;28;20440;-70
2023/12/25 04:01:10;;;;;;;6.47;1.40;;;;;;;;;;5067603;28;20464;-70
2023/12/25 04:03:37;;;;;;;2.33;1.20;;;;;;;;;;5064930;28;20528;-70
2023/12/25 04:06:03;;;;;;;5.83;1.33;;;;;;;;;;5058925;28;20527;-71
2023/12/25 04:08:31;;;;;;;4.93;1.57;;;;;;;;;;5056024;28;20512;-70
2023/12/25 04:10:57;;;;;;;3.47;1.13;;;;;;;;;;5053106;28;20524;-70
2023/12/25 04:13:24;;;;;;;6.40;1.67;;;;;;;;;;5050211;28;20532;-70
2023/12/25 04:15:50;;;;;;;2.70;1.37;;;;;;;;;;5047511;28;20489;-70
2023/12/25 04:18:16;;;;;;;1.60;1.27;;;;;;;;;;5053413;28;20454;-71
2023/12/25 04:20:43;;;;;;;5.47;1.27;;;;;;;;;;5056341;28;20480;-71
2023/12/25 04:23:09;;;;;;;3.23;1.30;;;;;;;;;;5050984;28;20492;-71
2023/12/25 04:25:37;;;;;;;4.50;1.77;;;;;;;;;;5051808;28;20492;-71
2023/12/25 04:28:03;;;;;;;6.23;1.30;;;;;;;;;;5047601;28;20495;-71
2023/12/25 04:30:30;;;;;;;2.27;1.20;;;;;;;;;;5049614;28;21247;-72
2023/12/25 04:32:56;;;;;;;1.93;1.33;;;;;;;;;;5052695;28;20520;-71
2023/12/25 04:35:23;;;;;;;3.80;1.40;;;;;;;;;;5054032;28;20525;-71
2023/12/25 04:37:49;;;;;;;2.70;1.20;;;;;;;;;;5050377;28;20480;-69
2023/12/25 04:40:15;;;;;;;1.40;1.13;;;;;;;;;;5051484;28;20500;-71
2023/12/25 04:42:43;;;;;;;3.53;1.70;;;;;;;;;;5053523;28;20520;-71
2023/12/25 04:45:10;;;;;;;6.43;1.53;;;;;;;;;;5053699;28;20592;-71
2023/12/25 04:47:36;;;;;;;6.23;1.67;;;;;;;;;;5051185;28;20529;-71
2023/12/25 04:50:03;;;;;;;2.40;1.13;;;;;;;;;;5050529;28;21003;-70
2023/12/25 04:52:30;;;;;;;2.27;1.50;;;;;;;;;;5053074;28;20476;-70
2023/12/25 04:54:56;;;;;;;4.30;1.37;;;;;;;;;;5050042;28;20448;-70
2023/12/25 04:57:22;;;;;;;2.40;1.17;;;;;;;;;;5047518;28;20543;-70
2023/12/25 04:59:50;;;;;;;2.30;1.00;;;;;;;;;;5046634;28;20463;-70
2023/12/25 05:02:17;;;;;;;1.80;1.30;;;;;;;;;;5051365;28;21220;-70
2023/12/25 05:04:43;;;;;;;4.00;1.53;;;;;;;;;;5053305;28;20488;-71
2023/12/25 05:07:09;;;;;;;3.70;1.40;;;;;;;;;;5050948;28;20532;-71
2023/12/25 05:09:36;;;;;;;3.20;1.60;;;;;;;;;;5049689;28;20515;-70
2023/12/25 05:12:02;;;;;;;3.00;1.30;;;;;;;;;;5039979;28;20545;-70
2023/12/25 05:14:28;;;;;;;4.60;1.33;;;;;;;;;;5050150;28;20450;-70
2023/12/25 05:16:56;;;;;;;1.30;0.93;;;;;;;;;;5052894;28;20988;-70
2023/12/25 05:19:22;;;;;;;2.80;1.20;;;;;;;;;;5050763;28;20545;-71
2023/12/25 05:21:49;;;;;;;1.60;0.87;;;;;;;;;;5054186;28;20998;-70
2023/12/25 05:24:15;;;;;;;2.70;1.00;;;;;;;;;;5055113;28;20483;-71
2023/12/25 05:26:42;;;;;;;1.53;0.73;;;;;;;;;;5054792;28;20441;-70
2023/12/25 05:29:08;;;;;;;2.43;0.80;;;;;;;;;;5052523;28;20522;-70
2023/12/25 05:31:35;;;;;;;4.20;1.00;;;;;;;;;;5052539;28;20580;-71
2023/12/25 05:34:02;;;;;;;2.10;0.80;;;;;;;;;;5053994;28;21031;-71
2023/12/25 05:36:29;;;;;;;1.43;0.77;;;;;;;;;;5054443;28;20492;-71
2023/12/25 05:38:55;;;;;;;3.50;1.30;;;;;;;;;;5055218;28;20551;-71
2023/12/25 05:41:22;;;;;;;1.10;0.90;;;;;;;;;;5054281;28;20449;-71
2023/12/25 05:43:48;;;;;;;1.63;1.20;;;;;;;;;;5047878;28;20525;-71
2023/12/25 05:46:14;;;;;;;2.73;1.00;;;;;;;;;;5054443;28;20540;-70
2023/12/25 05:48:41;;;;;;;1.70;0.90;;;;;;;;;;5054928;28;20528;-71
2023/12/25 05:51:09;;;;;;;2.93;1.60;;;;;;;;;;5054102;28;20488;-72
2023/12/25 05:53:35;;;;;;;5.97;1.07;;;;;;;;;;5057472;28;20508;-69
2023/12/25 05:56:03;;;;;;;3.27;1.47;;;;;;;;;;5053275;28;20487;-70
2023/12/25 05:58:30;;;;;;;3.90;1.53;;;;;;;;;;5056516;28;20452;-70
2023/12/25 06:00:57;;;;;;;1.70;1.17;;;;;;;;;;5051735;28;20533;-71
2023/12/25 06:03:23;;;;;;;2.40;1.40;;;;;;;;;;5051024;28;20526;-70
2023/12/25 06:05:49;;;;;;;6.77;1.63;;;;;;;;;;5066787;28;20598;-72
2023/12/25 06:08:18;;;;;;;2.20;2.00;;;;;;;;;;5077675;28;20465;-72
2023/12/25 06:10:44;;;;;;;3.70;1.40;;;;;;;;;;5076645;28;20460;-72
2023/12/25 06:13:10;;;;;;;5.57;2.07;;;;;;;;;;5067095;28;20490;-71
2023/12/25 06:15:37;;;;;;;3.30;1.50;;;;;;;;;;5076343;28;20484;-70
2023/12/25 06:18:04;;;;;;;3.80;1.90;;;;;;;;;;5075959;28;20494;-71
2023/12/25 06:20:31;;;;;;;3.40;2.23;;;;;;;;;;5069870;28;20960;-70
2023/12/25 06:22:57;;;;;;;5.07;2.40;;;;;;;;;;5072158;28;20977;-70
2023/12/25 06:25:25;;;;;;;4.93;2.67;;;;;;;;;;5068187;28;20456;-70
2023/12/25 06:27:51;;;;;;;8.47;2.83;;;;;;;;;;5071001;28;20459;-70
2023/12/25 06:30:18;;;;;;;4.87;2.60;;;;;;;;;;5066187;28;20471;-70
2023/12/25 06:32:45;;;;;;;5.20;3.30;;;;;;;;;;5069246;28;20551;-70
2023/12/25 06:35:11;;;;;;;6.17;3.20;;;;;;;;;;5074750;28;20527;-70
2023/12/25 06:37:37;;;;;;;5.83;3.10;;;;;;;;;;5075159;28;20454;-70
2023/12/25 06:40:05;;;;;;;6.67;3.77;;;;;;;;;;5069397;28;20452;-70
2023/12/25 06:42:33;;;;;;;4.37;2.80;;;;;;;;;;5074218;28;20467;-70
2023/12/25 06:44:59;;;;;;;4.33;3.40;;;;;;;;;;5067966;28;20535;-70
2023/12/25 06:47:26;;;;;;;5.10;3.70;;;;;;;;;;5073474;28;20519;-70
2023/12/25 06:49:52;;;;;;;5.20;3.63;;;;;;;;;;5069671;28;20456;-70
2023/12/25 06:52:19;;;;;;;4.50;3.30;;;;;;;;;;5077087;28;20938;-70
2023/12/25 06:54:45;;;;;;;4.03;3.00;;;;;;;;;;5074910;28;20908;-71
2023/12/25 06:57:13;;;;;;;5.70;3.20;;;;;;;;;;5072626;28;20484;-70
2023/12/25 06:59:41;;;;;;;5.30;3.20;;;;;;;;;;5081810;28;20469;-70
2023/12/25 07:02:08;;;;;;;4.20;2.90;;;;;;;;;;5071439;28;20571;-70
2023/12/25 07:04:35;;;;;;;4.67;3.10;;;;;;;;;;5029211;28;1124420;-70
2023/12/25 07:07:01;;;;;;;6.20;3.07;;;;;;;;;;5056517;28;20565;-69
2023/12/25 07:09:27;;;;;;;5.47;2.50;;;;;;;;;;5048631;28;20909;-70
2023/12/25 07:11:54;;;;;;;5.40;2.90;;;;;;;;;;5057491;28;20552;-71
2023/12/25 07:14:20;;;;;;;4.30;3.80;;;;;;;;;;5054774;28;20548;-69
2023/12/25 07:16:48;;;;;;;7.13;2.77;;;;;;;;;;5051243;28;20456;-70
2023/12/25 07:19:14;;;;;;;6.97;2.73;;;;;;;;;;5050378;28;20464;-71
2023/12/25 07:21:41;;;;;;;6.23;2.83;;;;;;;;;;5049220;28;20534;-70
2023/12/25 07:24:07;;;;;;;5.43;2.70;;;;;;;;;;5048657;28;20465;-71
2023/12/25 07:26:34;;;;;;;5.10;2.90;;;;;;;;;;5057119;28;20529;-71
2023/12/25 07:29:00;;;;;;;5.03;2.53;;;;;;;;;;5057689;28;20483;-70
2023/12/25 07:31:26;;;;;;;7.07;3.17;;;;;;;;;;5049062;28;20523;-70
2023/12/25 07:33:54;;;;;;;5.17;2.77;;;;;;;;;;5056158;28;20475;-70
2023/12/25 07:36:21;;;;;;;11.20;2.80;;;;;;;;;;5056825;28;20484;-69
2023/12/25 07:38:47;;;;;;;6.10;2.70;;;;;;;;;;5056272;28;20491;-70
2023/12/25 07:41:13;;;;;;;3.93;2.30;;;;;;;;;;5056403;28;20536;-69
2023/12/25 07:43:40;;;;;;;6.10;2.30;;;;;;;;;;5055017;28;20445;-69
2023/12/25 07:46:06;;;;;;;8.13;3.73;;;;;;;;;;5057064;28;20571;-70
2023/12/25 07:48:33;;;;;;;6.97;2.17;;;;;;;;;;5056295;28;20453;-71
2023/12/25 07:51:01;;;;;;;3.50;1.90;;;;;;;;;;5057270;28;20475;-70
2023/12/25 07:53:27;;;;;;;7.43;2.60;;;;;;;;;;5055449;28;20564;-69
2023/12/25 07:55:53;;;;;;;4.53;2.07;;;;;;;;;;5051701;28;20513;-70
2023/12/25 07:58:20;;;;;;;5.60;1.70;;;;;;;;;;5056356;28;20524;-71
2023/12/25 08:00:48;;;;;;;9.33;2.20;;;;;;;;;;5047659;28;20568;-70
2023/12/25 08:03:14;;;;;;;5.50;2.00;;;;;;;;;;5052087;28;20999;-70
2023/12/25 08:05:40;;;;;;;6.30;2.33;;;;;;;;;;5053999;28;20516;-70
2023/12/25 08:08:08;;;;;;;6.80;2.23;;;;;;;;;;5069336;28;20535;-70
2023/12/25 08:10:35;;;;;;;4.97;1.93;;;;;;;;;;5069945;28;20564;-70
2023/12/25 08:13:02;;;;;;;5.97;2.13;;;;;;;;;;5075614;28;20530;-70
2023/12/25 08:15:28;;;;;;;5.53;2.40;;;;;;;;;;5075421;28;20452;-70
2023/12/25 08:17:55;;;;;;;6.97;2.20;;;;;;;;;;5076800;28;20486;-70
2023/12/25 08:20:21;;;;;;;5.03;2.00;;;;;;;;;;5071378;28;20499;-71
2023/12/25 08:22:48;;;;;;;5.00;3.03;;;;;;;;;;5076348;28;20549;-72
2023/12/25 08:25:16;;;;;;;8.63;2.40;;;;;;;;;;5075524;28;20463;-70
2023/12/25 08:27:42;;;;;;;5.30;2.00;;;;;;;;;;5077089;28;20474;-70
2023/12/25 08:30:09;;;;;;;11.20;2.70;;;;;;;;;;5066912;28;20682;-70
2023/12/25 08:32:35;;;;;;;10.63;2.53;;;;;;;;;;5071973;28;20476;-69
2023/12/25 08:35:03;;;;;;;4.23;2.27;;;;;;;;;;5072801;28;20606;-71
2023/12/25 08:37:29;;;;;;;4.87;2.23;;;;;;;;;;5069280;28;20460;-71
2023/12/25 08:39:56;;;;;;;10.00;4.17;;;;;;;;;;5073283;28;20456;-70
2023/12/25 08:42:24;;;;;;;4.50;2.17;;;;;;;;;;5067340;28;20440;-70
2023/12/25 08:44:50;;;;;;;8.87;2.97;;;;;;;;;;5069750;28;20560;-70
2023/12/25 08:47:16;;;;;;;8.93;2.07;;;;;;;;;;5069398;28;20468;-70
2023/12/25 08:49:43;;;;;;;7.37;2.60;;;;;;;;;;5075478;28;20487;-71
2023/12/25 08:52:09;;;;;;;3.73;1.87;;;;;;;;;;5074907;28;20460;-69
2023/12/25 08:54:35;;;;;;;8.50;2.30;;;;;;;;;;5072667;28;20970;-69
2023/12/25 08:57:04;;;;;;;20.00;3.60;;;;;;;;;;5074487;28;20452;-70
2023/12/25 08:59:31;;;;;;;6.10;2.20;;;;;;;;;;5073417;28;20456;-70
2023/12/25 09:01:58;;;;;;;6.60;2.57;;;;;;;;;;5068992;28;20944;-70
2023/12/25 09:04:24;;;;;;;8.77;2.40;;;;;;;;;;5072357;28;20496;-71
2023/12/25 09:06:50;;;;;;;7.97;2.33;;;;;;;;;;5051846;28;20472;-70
2023/12/25 09:09:17;;;;;;;6.13;2.57;;;;;;;;;;5046470;28;20531;-70
2023/12/25 09:11:43;;;;;;;6.80;2.43;;;;;;;;;;5046327;28;20580;-69
2023/12/25 09:14:10;;;;;;;10.13;2.30;;;;;;;;;;5049319;28;20485;-69
2023/12/25 09:16:38;;;;;;;4.97;2.20;;;;;;;;;;5054337;28;20973;-69
2023/12/25 09:19:04;;;;;;;6.20;2.50;;;;;;;;;;5049157;28;20500;-70
2023/12/25 09:21:37;;;;;;;3.73;2.20;;;;;;;;;;5049521;28;20492;-70
2023/12/25 09:24:03;;;;;;;5.73;2.50;;;;;;;;;;5047434;28;20485;-69
2023/12/25 09:26:30;;;;;;;6.87;2.40;;;;;;;;;;5051786;28;20680;-70
2023/12/25 09:28:57;;;;;;;7.20;2.83;;;;;;;;;;5048736;28;20469;-70
2023/12/25 09:31:23;;;;;;;7.23;2.30;;;;;;;;;;5051563;28;20522;-71
2023/12/25 09:33:53;;;;;;;3.80;2.37;;;;;;;;;;5048100;28;20503;-71
2023/12/25 09:36:20;;;;;;;11.30;3.23;;;;;;;;;;5049910;28;20490;-72
2023/12/25 09:38:46;;;;;;;8.00;2.90;;;;;;;;;;5047936;28;20533;-72
2023/12/25 09:41:14;;;;;;;8.47;2.90;;;;;;;;;;5048924;28;20524;-72
2023/12/25 09:43:43;;;;;;;6.47;3.57;;;;;;;;;;5047231;28;21060;-72
2023/12/25 09:46:10;;;;;;;4.67;2.60;;;;;;;;;;5049304;28;20457;-72
2023/12/25 09:48:38;;;;;;;4.17;2.60;;;;;;;;;;5048256;28;20532;-72
2023/12/25 09:51:07;;;;;;;4.93;2.10;;;;;;;;;;5052208;28;21320;-72
2023/12/25 09:53:34;;;;;;;5.00;2.40;;;;;;;;;;5048974;28;20534;-72
2023/12/25 09:56:01;;;;;;;7.03;2.93;;;;;;;;;;5054450;28;20491;-72
2023/12/25 09:58:28;;;;;;;4.97;2.50;;;;;;;;;;5054901;28;20747;-72
2023/12/25 10:00:55;;;;;;;3.70;2.47;;;;;;;;;;5053655;28;20533;-72
2023/12/25 10:03:22;;;;;;;5.13;2.40;;;;;;;;;;5054724;28;20445;-72
2023/12/25 10:05:48;;;;;;;7.10;2.57;;;;;;;;;;5043583;28;20593;-73
2023/12/25 10:08:16;;;;;;;4.20;2.00;;;;;;;;;;5050744;28;20533;-75
2023/12/25 10:10:43;;;;;;;3.00;2.03;;;;;;;;;;5055806;28;20623;-72
2023/12/25 10:13:11;;;;;;;3.87;1.93;;;;;;;;;;5059358;28;20992;-73
2023/12/25 10:15:37;;;;;;;3.90;2.33;;;;;;;;;;5056624;28;20539;-72
2023/12/25 10:18:04;;;;;;;5.43;2.47;;;;;;;;;;5060688;28;20479;-71
2023/12/25 10:20:31;;;;;;;5.77;3.10;;;;;;;;;;5057503;28;20539;-72
2023/12/25 10:22:57;;;;;;;4.30;2.27;;;;;;;;;;5059233;28;20500;-69
2023/12/25 10:25:28;;;;;;;3.10;2.00;;;;;;;;;;5054447;28;20484;-73
2023/12/25 10:27:54;;;;;;;4.43;2.23;;;;;;;;;;5048196;28;20452;-72
2023/12/25 10:30:21;;;;;;;2.90;1.87;;;;;;;;;;5052765;28;20543;-73
2023/12/25 10:32:48;;;;;;;3.50;2.03;;;;;;;;;;5045158;28;20473;-73
2023/12/25 10:35:17;;;;;;;3.67;2.17;;;;;;;;;;5065491;28;20761;-73
2023/12/25 10:37:45;;;;;;;5.70;2.20;;;;;;;;;;5055435;28;20465;-73
2023/12/25 10:40:21;;;;;;;6.93;2.53;;;;;;;;;;5057344;28;20587;-73
2023/12/25 10:42:49;;;;;;;8.03;3.00;;;;;;;;;;5058713;28;20437;-74
2023/12/25 10:45:18;;;;;;;3.57;2.10;;;;;;;;;;5060167;28;20495;-73
2023/12/25 10:47:45;;;;;;;4.93;2.63;;;;;;;;;;5060276;28;20472;-71
2023/12/25 10:50:12;;;;;;;2.83;2.53;;;;;;;;;;5056601;28;20472;-74
2023/12/25 10:52:39;;;;;;;3.93;2.50;;;;;;;;;;5053725;28;20546;-74
2023/12/25 10:55:05;;;;;;;4.63;2.37;;;;;;;;;;5057243;28;20461;-74
2023/12/25 10:57:32;;;;;;;4.90;2.20;;;;;;;;;;5059870;28;20675;-73
2023/12/25 11:00:03;;;;;;;3.30;2.27;;;;;;;;;;5058228;28;20492;-74
2023/12/25 11:02:30;;;;;;;2.57;2.37;;;;;;;;;;5058322;28;20484;-74
2023/12/25 11:04:56;;;;;;;5.27;2.40;;;;;;;;;;5062156;28;20500;-74
2023/12/25 11:07:23;;;;;;;6.83;2.97;;;;;;;;;;5070289;28;20516;-74
2023/12/25 11:09:52;;;;;;;4.17;2.47;;;;;;;;;;5078385;28;20483;-74
2023/12/25 11:12:19;;;;;;;3.97;2.30;;;;;;;;;;5077227;28;21066;-74
2023/12/25 11:14:45;;;;;;;7.90;2.10;;;;;;;;;;5077771;28;20530;-74
2023/12/25 11:17:13;;;;;;;5.60;1.97;;;;;;;;;;5077412;28;20947;-74
2023/12/25 11:19:39;;;;;;;3.57;2.40;;;;;;;;;;5078283;28;20516;-74
2023/12/25 11:22:21;;;;;;;4.60;2.37;;;;;;;;;;5076508;28;20448;-74
2023/12/25 11:24:47;;;;;;;3.47;2.43;;;;;;;;;;5074318;28;20551;-74
2023/12/25 11:27:16;;;;;;;5.03;2.53;;;;;;;;;;5072671;28;20952;-75
2023/12/25 11:29:42;;;;;;;5.40;2.90;;;;;;;;;;5078158;28;20786;-74
2023/12/25 11:32:09;;;;;;;3.07;1.80;;;;;;;;;;5073683;28;20488;-74
2023/12/25 11:34:40;;;;;;;3.70;2.60;;;;;;;;;;5070989;28;20579;-73
2023/12/25 11:37:18;;;;;;;3.87;2.20;;;;;;;;;;5070905;28;20448;-73
2023/12/25 11:39:49;;;;;;;2.93;1.57;;;;;;;;;;5072251;28;20523;-74
2023/12/25 11:42:15;;;;;;;3.80;2.23;;;;;;;;;;5071072;28;20510;-75
2023/12/25 11:44:42;;;;;;;3.27;2.50;;;;;;;;;;5079658;28;20503;-70
2023/12/25 11:47:08;;;;;;;8.80;3.40;;;;;;;;;;5074286;28;20448;-73
2023/12/25 11:49:39;;;;;;;5.20;2.13;;;;;;;;;;5077163;28;20456;-74
2023/12/25 11:52:07;;;;;;;2.83;2.30;;;;;;;;;;5075965;28;20774;-74
2023/12/25 11:54:36;;;;;;;3.40;2.17;;;;;;;;;;5075637;28;20567;-74
2023/12/25 11:57:16;;;;;;;2.30;2.10;;;;;;;;;;5068591;28;20476;-74
2023/12/25 11:59:43;;;;;;;2.30;2.00;;;;;;;;;;5069736;28;20576;-74
2023/12/25 12:02:09;;;;;;;2.60;1.70;;;;;;;;;;5068349;28;20532;-74
2023/12/25 12:04:36;;;;;;;3.77;1.97;;;;;;;;;;5071540;28;20511;-75
2023/12/25 12:07:02;;;;;;;3.63;3.00;;;;;;;;;;5071517;28;20760;-75
2023/12/25 12:09:30;;;;;;;6.30;2.67;;;;;;;;;;5072645;28;20506;-75
2023/12/25 12:11:57;;;;;;;6.47;2.10;;;;;;;;;;5074629;28;20456;-76
2023/12/25 12:14:24;;;;;;;4.60;2.00;;;;;;;;;;5074000;28;20546;-78
2023/12/25 12:16:51;;;;;;;4.03;2.23;;;;;;;;;;5068238;28;20475;-72
2023/12/25 12:19:18;;;;;;;2.10;1.73;;;;;;;;;;5066643;28;20465;-71
2023/12/25 12:21:46;;;;;;;6.40;2.50;;;;;;;;;;5066421;28;20579;-71
2023/12/25 12:24:25;;;;;;;3.47;2.00;;;;;;;;;;5069391;28;20444;-71
2023/12/25 12:26:53;;;;;;;3.73;1.83;;;;;;;;;;5065963;28;20464;-71
2023/12/25 12:29:20;;;;;;;4.87;2.13;;;;;;;;;;5069342;28;20502;-71
2023/12/25 12:31:46;;;;;;;4.40;2.40;;;;;;;;;;5067605;28;20476;-71
2023/12/25 12:34:13;;;;;;;2.13;1.73;;;;;;;;;;5073738;28;20848;-72
2023/12/25 12:36:39;;;;;;;5.13;1.90;;;;;;;;;;5069849;28;20544;-70
2023/12/25 12:39:06;;;;;;;7.80;1.70;;;;;;;;;;5067588;28;20479;-70
2023/12/25 12:41:32;;;;;;;3.63;2.00;;;;;;;;;;5068994;28;20445;-72
2023/12/25 12:44:01;;;;;;;1.63;1.53;;;;;;;;;;5068322;28;20483;-71
2023/12/25 12:46:29;;;;;;;2.93;2.20;;;;;;;;;;5071426;28;20603;-70
2023/12/25 12:48:55;;;;;;;5.57;1.90;;;;;;;;;;5067089;28;20448;-71
2023/12/25 12:51:23;;;;;;;3.80;2.00;;;;;;;;;;5071296;28;20859;-72
2023/12/25 12:53:50;;;;;;;2.80;1.30;;;;;;;;;;5067319;28;20500;-71
2023/12/25 12:56:16;;;;;;;4.97;1.83;;;;;;;;;;5065772;28;20511;-71
2023/12/25 12:58:43;;;;;;;4.23;1.70;;;;;;;;;;5067314;28;20463;-71
2023/12/25 13:01:11;;;;;;;3.00;2.00;;;;;;;;;;5067943;28;20475;-69
2023/12/25 13:03:37;;;;;;;3.63;1.43;;;;;;;;;;5066217;28;20429;-71
2023/12/25 13:06:04;;;;;;;3.13;1.30;;;;;;;;;;5054204;28;20620;-70
2023/12/25 13:08:31;;;;;;;2.40;1.60;;;;;;;;;;5047109;28;20479;-70
2023/12/25 13:10:57;;;;;;;2.63;1.80;;;;;;;;;;5050238;28;20497;-69
2023/12/25 13:13:23;;;;;;;4.93;1.60;;;;;;;;;;5050481;28;20755;-70
2023/12/25 13:15:50;;;;;;;4.73;1.67;;;;;;;;;;5049911;28;20449;-69
2023/12/25 13:18:18;;;;;;;3.20;1.60;;;;;;;;;;5046906;28;20462;-72
2023/12/25 13:20:44;;;;;;;1.80;1.37;;;;;;;;;;5054769;28;21007;-71
2023/12/25 13:23:11;;;;;;;1.93;1.50;;;;;;;;;;5050411;28;20971;-72
2023/12/25 13:25:37;;;;;;;1.80;1.60;;;;;;;;;;5055842;28;20499;-72
2023/12/25 13:28:04;;;;;;;3.10;1.60;;;;;;;;;;5059107;28;20445;-74
2023/12/25 13:30:30;;;;;;;2.60;1.83;;;;;;;;;;5051158;28;20513;-75
2023/12/25 13:32:57;;;;;;;2.70;1.67;;;;;;;;;;5051055;28;20445;-74
2023/12/25 13:35:25;;;;;;;2.50;1.73;;;;;;;;;;5046127;28;20574;-68
2023/12/25 13:37:51;;;;;;;1.37;1.27;;;;;;;;;;5050036;28;20506;-69
2023/12/25 13:40:17;;;;;;;4.03;1.90;;;;;;;;;;5056112;28;20449;-70
2023/12/25 13:42:44;;;;;;;1.47;1.37;;;;;;;;;;5054444;28;20511;-69
2023/12/25 13:45:10;;;;;;;2.30;1.53;;;;;;;;;;5049421;28;20499;-69
2023/12/25 13:47:37;;;;;;;2.57;1.87;;;;;;;;;;5050338;28;20494;-70
2023/12/25 13:50:04;;;;;;;1.80;1.60;;;;;;;;;;5049384;28;21139;-70
2023/12/25 13:52:33;;;;;;;2.90;1.50;;;;;;;;;;5044868;28;20526;-70
2023/12/25 13:55:02;;;;;;;1.23;1.13;;;;;;;;;;5045019;28;20507;-70
2023/12/25 13:57:29;;;;;;;1.70;1.60;;;;;;;;;;5050802;28;20512;-70
2023/12/25 13:59:55;;;;;;;4.03;1.70;;;;;;;;;;5050833;28;20454;-70
2023/12/25 14:02:21;;;;;;;2.13;1.37;;;;;;;;;;5051300;28;20448;-69
2023/12/25 14:04:48;;;;;;;1.70;1.60;;;;;;;;;;5052789;28;20473;-69
2023/12/25 14:07:14;;;;;;;1.47;1.37;;;;;;;;;;5055305;28;20493;-70
2023/12/25 14:09:44;;;;;;;1.20;1.10;;;;;;;;;;5053626;28;20992;-71
2023/12/25 14:12:11;;;;;;;1.30;1.20;;;;;;;;;;5058661;28;20508;-72
2023/12/25 14:14:37;;;;;;;3.07;1.53;;;;;;;;;;5057648;28;20485;-71
2023/12/25 14:17:04;;;;;;;2.00;1.63;;;;;;;;;;5050295;28;20463;-73
2023/12/25 14:19:30;;;;;;;2.40;1.60;;;;;;;;;;5055190;28;20445;-66
2023/12/25 14:21:57;;;;;;;1.40;1.30;;;;;;;;;;5046461;28;20462;-69
2023/12/25 14:24:23;;;;;;;2.73;1.53;;;;;;;;;;5057678;28;20441;-71
2023/12/25 14:26:51;;;;;;;1.33;1.20;;;;;;;;;;5054838;28;20530;-71
2023/12/25 14:29:17;;;;;;;2.20;1.70;;;;;;;;;;5053806;28;20449;-70
2023/12/25 14:31:44;;;;;;;2.47;1.50;;;;;;;;;;5054052;28;20465;-72
2023/12/25 14:34:10;;;;;;;5.13;1.70;;;;;;;;;;5059918;28;20488;-71
2023/12/25 14:36:37;;;;;;;2.07;1.87;;;;;;;;;;5058843;28;20445;-69
2023/12/25 14:39:04;;;;;;;3.90;1.57;;;;;;;;;;5057579;28;20444;-69
2023/12/25 14:41:31;;;;;;;2.13;1.60;;;;;;;;;;5052366;28;20475;-71